createdAt,value
2022-11-09T00:00:01.148Z,15
2022-11-09T00:01:01.721Z,15
2022-11-09T00:02:01.298Z,15
2022-11-09T00:03:00.888Z,15.1
2022-11-09T00:04:01.478Z,15
2022-11-09T00:05:01.054Z,15.1
2022-11-09T00:06:01.629Z,15
2022-11-09T00:07:01.256Z,15
2022-11-09T00:08:00.791Z,15
2022-11-09T00:09:07.013Z,15
2022-11-09T00:10:01.000Z,15
2022-11-09T00:11:01.602Z,14.9
2022-11-09T00:12:01.179Z,15
2022-11-09T00:13:01.756Z,15.1
2022-11-09T00:14:01.332Z,15
2022-11-09T00:15:00.924Z,15.1
2022-11-09T00:16:01.486Z,15
2022-11-09T00:17:01.061Z,15
2022-11-09T00:18:01.640Z,15
2022-11-09T00:19:01.218Z,15
2022-11-09T00:20:00.806Z,15
2022-11-09T00:21:01.368Z,15
2022-11-09T00:22:00.944Z,15
2022-11-09T00:23:01.522Z,14.9
2022-11-09T00:24:01.097Z,14.9
2022-11-09T00:25:01.727Z,14.9
2022-11-09T00:26:01.316Z,14.9
2022-11-09T00:27:00.890Z,14.9
2022-11-09T00:28:01.470Z,14.9
2022-11-09T00:29:01.047Z,14.8
2022-11-09T00:30:01.644Z,14.9
2022-11-09T00:31:01.251Z,14.9
2022-11-09T00:32:00.802Z,14.9
2022-11-09T00:33:01.379Z,14.8
2022-11-09T00:34:00.957Z,14.8
2022-11-09T00:35:01.535Z,14.8
2022-11-09T00:36:01.136Z,14.8
2022-11-09T00:37:01.710Z,14.8
2022-11-09T00:38:01.309Z,14.8
2022-11-09T00:39:00.897Z,14.8
2022-11-09T00:40:01.480Z,14.8
2022-11-09T00:41:01.080Z,14.7
2022-11-09T00:42:01.668Z,14.7
2022-11-09T00:43:01.244Z,14.7
2022-11-09T00:44:00.820Z,14.7
2022-11-09T00:45:01.444Z,14.7
2022-11-09T00:46:01.021Z,14.7
2022-11-09T00:47:01.613Z,14.7
2022-11-09T00:48:01.194Z,14.7
2022-11-09T00:49:00.771Z,14.7
2022-11-09T00:50:01.348Z,14.6
2022-11-09T00:51:00.921Z,14.7
2022-11-09T00:52:01.516Z,14.6
2022-11-09T00:53:01.091Z,14.5
2022-11-09T00:54:01.669Z,14.5
2022-11-09T00:55:01.260Z,14.5
2022-11-09T00:56:00.830Z,14.5
2022-11-09T00:57:01.446Z,14.5
2022-11-09T00:58:01.041Z,14.5
2022-11-09T00:59:01.611Z,14.5
2022-11-09T01:00:01.188Z,14.5
2022-11-09T01:01:00.854Z,14.5
2022-11-09T01:02:01.345Z,14.5
2022-11-09T01:03:00.952Z,14.5
2022-11-09T01:04:01.517Z,14.4
2022-11-09T01:05:01.096Z,14.5
2022-11-09T01:06:01.673Z,14.5
2022-11-09T01:07:01.283Z,14.5
2022-11-09T01:08:00.860Z,14.4
2022-11-09T01:09:01.419Z,14.5
2022-11-09T01:10:01.002Z,14.5
2022-11-09T01:11:01.575Z,14.4
2022-11-09T01:12:01.153Z,14.4
2022-11-09T01:13:01.776Z,14.4
2022-11-09T01:14:01.354Z,14.4
2022-11-09T01:15:00.926Z,14.4
2022-11-09T01:16:01.504Z,14.4
2022-11-09T01:17:01.083Z,14.4
2022-11-09T01:18:01.682Z,14.4
2022-11-09T01:19:01.261Z,14.3
2022-11-09T01:20:00.830Z,14.4
2022-11-09T01:21:01.406Z,14.4
2022-11-09T01:22:00.984Z,14.4
2022-11-09T01:23:01.576Z,14.3
2022-11-09T01:24:01.169Z,14.3
2022-11-09T01:25:01.748Z,14.3
2022-11-09T01:26:01.323Z,14.3
2022-11-09T01:27:00.905Z,14.3
2022-11-09T01:28:01.496Z,14.3
2022-11-09T01:29:01.111Z,14.3
2022-11-09T01:30:01.644Z,14.3
2022-11-09T01:31:01.223Z,14.3
2022-11-09T01:32:00.797Z,14.3
2022-11-09T01:33:01.372Z,14.2
2022-11-09T01:34:00.969Z,14.2
2022-11-09T01:35:01.541Z,14.2
2022-11-09T01:36:01.193Z,14.3
2022-11-09T01:37:00.770Z,14.3
2022-11-09T01:38:01.345Z,14.3
2022-11-09T01:39:00.942Z,14.3
2022-11-09T01:40:01.497Z,14.3
2022-11-09T01:41:01.071Z,14.3
2022-11-09T01:42:01.645Z,14.4
2022-11-09T01:43:01.220Z,14.3
2022-11-09T01:44:00.818Z,14.4
2022-11-09T01:45:01.442Z,14.4
2022-11-09T01:46:01.019Z,14.4
2022-11-09T01:47:01.591Z,14.4
2022-11-09T01:48:01.171Z,14.4
2022-11-09T01:49:01.773Z,14.4
2022-11-09T01:50:01.366Z,14.4
2022-11-09T01:51:00.946Z,14.4
2022-11-09T01:52:01.516Z,14.4
2022-11-09T01:53:01.101Z,14.5
2022-11-09T01:54:01.692Z,14.4
2022-11-09T01:55:01.269Z,14.5
2022-11-09T01:56:00.842Z,14.5
2022-11-09T01:57:01.414Z,14.5
2022-11-09T01:58:00.986Z,14.5
2022-11-09T01:59:01.584Z,14.5
2022-11-09T02:00:01.168Z,14.5
2022-11-09T02:01:01.819Z,14.5
2022-11-09T02:02:01.459Z,14.5
2022-11-09T02:03:00.958Z,14.5
2022-11-09T02:04:01.550Z,14.5
2022-11-09T02:05:01.148Z,14.4
2022-11-09T02:06:01.713Z,14.4
2022-11-09T02:07:01.314Z,14.4
2022-11-09T02:08:00.907Z,14.4
2022-11-09T02:09:01.484Z,14.4
2022-11-09T02:10:01.081Z,14.3
2022-11-09T02:11:01.671Z,14.3
2022-11-09T02:12:01.247Z,14.3
2022-11-09T02:13:00.823Z,14.2
2022-11-09T02:14:01.401Z,14.2
2022-11-09T02:15:00.977Z,14.2
2022-11-09T02:16:01.571Z,14.2
2022-11-09T02:17:01.277Z,14.2
2022-11-09T02:18:01.722Z,14.2
2022-11-09T02:19:01.297Z,14.1
2022-11-09T02:20:00.888Z,14
2022-11-09T02:21:01.457Z,14
2022-11-09T02:22:01.032Z,14.1
2022-11-09T02:23:01.605Z,14.1
2022-11-09T02:24:01.181Z,14.2
2022-11-09T02:25:01.774Z,14.3
2022-11-09T02:26:01.349Z,14.2
2022-11-09T02:27:00.929Z,14.3
2022-11-09T02:28:01.521Z,14.3
2022-11-09T02:29:01.100Z,14.2
2022-11-09T02:30:01.675Z,14.3
2022-11-09T02:31:01.256Z,14.3
2022-11-09T02:32:00.838Z,14.3
2022-11-09T02:33:01.442Z,14.2
2022-11-09T02:34:01.017Z,14.2
2022-11-09T02:35:01.619Z,14.3
2022-11-09T02:36:01.199Z,14.3
2022-11-09T02:37:00.791Z,14.2
2022-11-09T02:38:01.382Z,14.3
2022-11-09T02:39:00.958Z,14.3
2022-11-09T02:40:01.549Z,14.3
2022-11-09T02:41:01.129Z,14.2
2022-11-09T02:42:03.250Z,14.1
2022-11-09T02:43:01.152Z,14.1
2022-11-09T02:44:01.733Z,14
2022-11-09T02:45:01.322Z,14
2022-11-09T02:46:00.944Z,14
2022-11-09T02:47:01.487Z,14
2022-11-09T02:48:01.079Z,14
2022-11-09T02:49:01.685Z,14
2022-11-09T02:50:01.267Z,14
2022-11-09T02:51:00.862Z,13.9
2022-11-09T02:52:01.433Z,14
2022-11-09T02:53:01.009Z,14
2022-11-09T02:54:01.587Z,14
2022-11-09T02:55:01.165Z,13.9
2022-11-09T02:56:01.763Z,14
2022-11-09T02:57:01.341Z,13.9
2022-11-09T02:58:00.917Z,14
2022-11-09T02:59:01.493Z,14
2022-11-09T03:00:01.070Z,14
2022-11-09T03:01:01.720Z,13.9
2022-11-09T03:02:01.316Z,13.9
2022-11-09T03:03:00.892Z,13.9
2022-11-09T03:04:01.469Z,13.8
2022-11-09T03:05:01.075Z,13.8
2022-11-09T03:06:01.648Z,13.8
2022-11-09T03:07:01.271Z,13.8
2022-11-09T03:08:00.798Z,13.8
2022-11-09T03:09:01.376Z,13.9
2022-11-09T03:10:00.955Z,13.9
2022-11-09T03:11:01.548Z,13.8
2022-11-09T03:12:01.140Z,13.8
2022-11-09T03:13:01.711Z,13.8
2022-11-09T03:14:01.286Z,13.8
2022-11-09T03:15:00.868Z,13.7
2022-11-09T03:16:01.460Z,13.7
2022-11-09T03:17:01.037Z,13.7
2022-11-09T03:18:01.619Z,13.7
2022-11-09T03:19:01.194Z,13.6
2022-11-09T03:20:00.771Z,13.5
2022-11-09T03:21:01.391Z,13.6
2022-11-09T03:22:00.969Z,13.6
2022-11-09T03:23:01.543Z,13.6
2022-11-09T03:24:01.118Z,13.6
2022-11-09T03:25:01.693Z,13.7
2022-11-09T03:26:01.283Z,13.7
2022-11-09T03:27:00.880Z,13.8
2022-11-09T03:28:01.443Z,13.9
2022-11-09T03:29:01.018Z,13.9
2022-11-09T03:30:01.593Z,13.9
2022-11-09T03:31:01.173Z,14
2022-11-09T03:32:01.766Z,14
2022-11-09T03:33:01.346Z,14
2022-11-09T03:34:00.928Z,14
2022-11-09T03:35:01.510Z,14
2022-11-09T03:36:01.090Z,14
2022-11-09T03:37:01.715Z,14
2022-11-09T03:38:01.403Z,14
2022-11-09T03:39:00.901Z,14.1
2022-11-09T03:40:01.478Z,14.1
2022-11-09T03:41:01.056Z,14.2
2022-11-09T03:42:01.655Z,14.2
2022-11-09T03:43:01.246Z,14.2
2022-11-09T03:44:00.837Z,14.3
2022-11-09T03:45:01.402Z,14.2
2022-11-09T03:46:00.984Z,14.3
2022-11-09T03:47:01.599Z,14.3
2022-11-09T03:48:01.187Z,14.3
2022-11-09T03:49:01.757Z,14.3
2022-11-09T03:50:01.330Z,14.3
2022-11-09T03:51:00.903Z,14.3
2022-11-09T03:52:01.483Z,14.3
2022-11-09T03:53:01.099Z,14.3
2022-11-09T03:54:01.646Z,14.3
2022-11-09T03:55:01.243Z,14.3
2022-11-09T03:56:00.811Z,14.3
2022-11-09T03:57:01.382Z,14.3
2022-11-09T03:58:00.958Z,14.3
2022-11-09T03:59:01.533Z,14.3
2022-11-09T04:00:01.132Z,14.3
2022-11-09T04:01:01.689Z,14.3
2022-11-09T04:02:01.318Z,14.3
2022-11-09T04:03:00.832Z,14.4
2022-11-09T04:04:01.407Z,14.3
2022-11-09T04:05:01.002Z,14.3
2022-11-09T04:06:01.569Z,14.3
2022-11-09T04:07:01.216Z,14.4
2022-11-09T04:08:01.721Z,14.4
2022-11-09T04:09:01.319Z,14.4
2022-11-09T04:10:00.915Z,14.5
2022-11-09T04:11:01.488Z,14.5
2022-11-09T04:12:01.062Z,14.5
2022-11-09T04:13:01.637Z,14.4
2022-11-09T04:14:01.274Z,14.4
2022-11-09T04:15:00.868Z,14.4
2022-11-09T04:16:01.436Z,14.5
2022-11-09T04:17:01.012Z,14.5
2022-11-09T04:18:01.584Z,14.5
2022-11-09T04:19:01.157Z,14.5
2022-11-09T04:20:01.743Z,14.5
2022-11-09T04:21:01.340Z,14.5
2022-11-09T04:22:00.918Z,14.5
2022-11-09T04:23:01.491Z,14.5
2022-11-09T04:24:01.067Z,14.5
2022-11-09T04:25:01.664Z,14.6
2022-11-09T04:26:01.261Z,14.5
2022-11-09T04:27:00.829Z,14.4
2022-11-09T04:28:01.407Z,14.3
2022-11-09T04:29:00.981Z,14.2
2022-11-09T04:30:01.560Z,14.1
2022-11-09T04:31:01.159Z,14.1
2022-11-09T04:32:01.725Z,14
2022-11-09T04:33:01.300Z,14
2022-11-09T04:34:00.873Z,14
2022-11-09T04:35:01.452Z,13.9
2022-11-09T04:36:01.048Z,13.9
2022-11-09T04:37:01.636Z,13.9
2022-11-09T04:38:01.214Z,13.9
2022-11-09T04:39:00.789Z,13.9
2022-11-09T04:40:01.365Z,13.9
2022-11-09T04:41:00.983Z,13.9
2022-11-09T04:42:01.536Z,13.9
2022-11-09T04:43:01.115Z,13.9
2022-11-09T04:44:01.691Z,14
2022-11-09T04:45:01.268Z,14
2022-11-09T04:46:00.864Z,14
2022-11-09T04:47:01.466Z,13.9
2022-11-09T04:48:01.042Z,14
2022-11-09T04:49:01.616Z,13.9
2022-11-09T04:50:01.201Z,14
2022-11-09T04:51:01.776Z,14
2022-11-09T04:52:01.351Z,13.9
2022-11-09T04:53:04.058Z,14
2022-11-09T04:54:01.461Z,14
2022-11-09T04:55:01.034Z,14
2022-11-09T04:56:01.625Z,14
2022-11-09T04:57:01.230Z,14
2022-11-09T04:58:00.826Z,14.1
2022-11-09T04:59:01.349Z,14.1
2022-11-09T05:00:00.924Z,14.1
2022-11-09T05:01:01.501Z,14.1
2022-11-09T05:02:01.118Z,14.2
2022-11-09T05:03:01.726Z,14.2
2022-11-09T05:04:01.346Z,14.1
2022-11-09T05:05:00.877Z,14.1
2022-11-09T05:06:01.449Z,14.1
2022-11-09T05:07:01.050Z,14.1
2022-11-09T05:08:01.629Z,14
2022-11-09T05:09:01.229Z,14.1
2022-11-09T05:10:00.799Z,14
2022-11-09T05:11:01.367Z,14.1
2022-11-09T05:12:00.939Z,14.1
2022-11-09T05:13:01.553Z,14.1
2022-11-09T05:14:01.145Z,14.1
2022-11-09T05:15:01.721Z,14.1
2022-11-09T05:16:01.293Z,14.1
2022-11-09T05:17:00.873Z,14.1
2022-11-09T05:18:01.470Z,14.1
2022-11-09T05:19:01.044Z,14.1
2022-11-09T05:20:01.616Z,14.1
2022-11-09T05:21:01.190Z,14.1
2022-11-09T05:22:01.767Z,14
2022-11-09T05:23:01.356Z,14
2022-11-09T05:24:01.194Z,13.9
2022-11-09T05:25:01.519Z,13.9
2022-11-09T05:26:01.096Z,13.9
2022-11-09T05:27:01.670Z,13.9
2022-11-09T05:28:01.267Z,13.9
2022-11-09T05:29:01.007Z,13.9
2022-11-09T05:30:01.432Z,13.9
2022-11-09T05:31:01.013Z,13.9
2022-11-09T05:32:01.577Z,13.9
2022-11-09T05:33:01.156Z,13.9
2022-11-09T05:34:01.751Z,14
2022-11-09T05:35:01.328Z,13.9
2022-11-09T05:36:00.905Z,13.9
2022-11-09T05:37:03.585Z,13.9
2022-11-09T05:38:01.019Z,13.9
2022-11-09T05:39:01.615Z,13.9
2022-11-09T05:40:01.191Z,13.8
2022-11-09T05:41:01.764Z,13.8
2022-11-09T05:42:01.342Z,13.8
2022-11-09T05:43:00.917Z,13.8
2022-11-09T05:44:01.545Z,13.8
2022-11-09T05:45:15.268Z,13.7
2022-11-09T05:46:06.340Z,13.7
2022-11-09T05:47:01.218Z,13.7
2022-11-09T05:48:00.837Z,13.7
2022-11-09T05:49:01.371Z,13.6
2022-11-09T05:50:01.050Z,13.6
2022-11-09T05:51:01.625Z,13.6
2022-11-09T05:52:01.198Z,13.6
2022-11-09T05:53:01.772Z,13.6
2022-11-09T05:54:01.362Z,13.5
2022-11-09T05:55:00.953Z,13.5
2022-11-09T05:56:01.527Z,13.5
2022-11-09T05:57:01.102Z,13.4
2022-11-09T05:58:01.676Z,13.3
2022-11-09T05:59:01.273Z,13.3
2022-11-09T06:00:00.837Z,13.3
2022-11-09T06:01:01.431Z,13.3
2022-11-09T06:02:01.031Z,13.3
2022-11-09T06:03:01.585Z,13.2
2022-11-09T06:04:01.178Z,13.3
2022-11-09T06:05:01.749Z,13.3
2022-11-09T06:06:05.337Z,13.2
2022-11-09T06:07:00.927Z,13.2
2022-11-09T06:08:01.540Z,13.3
2022-11-09T06:09:01.112Z,13.3
2022-11-09T06:10:01.686Z,13.3
2022-11-09T06:11:01.277Z,13.3
2022-11-09T06:12:00.839Z,13.3
2022-11-09T06:13:01.414Z,13.3
2022-11-09T06:14:00.995Z,13.3
2022-11-09T06:15:01.593Z,13.3
2022-11-09T06:16:01.187Z,13.4
2022-11-09T06:17:01.767Z,13.5
2022-11-09T06:18:01.340Z,13.5
2022-11-09T06:19:00.918Z,13.4
2022-11-09T06:20:01.491Z,13.4
2022-11-09T06:21:01.091Z,13.3
2022-11-09T06:22:01.643Z,13.2
2022-11-09T06:23:03.376Z,13
2022-11-09T06:24:01.755Z,12.9
2022-11-09T06:25:01.329Z,12.8
2022-11-09T06:26:00.921Z,12.7
2022-11-09T06:27:01.509Z,12.7
2022-11-09T06:28:01.108Z,12.7
2022-11-09T06:29:01.670Z,12.7
2022-11-09T06:30:01.259Z,12.7
2022-11-09T06:31:00.865Z,12.7
2022-11-09T06:32:01.426Z,12.7
2022-11-09T06:33:01.052Z,12.7
2022-11-09T06:34:01.588Z,12.7
2022-11-09T06:35:01.164Z,12.7
2022-11-09T06:36:01.756Z,12.7
2022-11-09T06:37:01.329Z,12.6
2022-11-09T06:38:00.920Z,12.6
2022-11-09T06:39:01.492Z,12.7
2022-11-09T06:40:01.068Z,12.6
2022-11-09T06:41:01.661Z,12.6
2022-11-09T06:42:01.386Z,12.6
2022-11-09T06:43:00.862Z,12.6
2022-11-09T06:44:01.442Z,12.6
2022-11-09T06:45:01.015Z,12.5
2022-11-09T06:46:01.592Z,12.6
2022-11-09T06:47:01.186Z,12.6
2022-11-09T06:48:01.778Z,12.6
2022-11-09T06:49:01.445Z,12.6
2022-11-09T06:50:00.996Z,12.5
2022-11-09T06:51:01.572Z,12.5
2022-11-09T06:52:01.169Z,12.4
2022-11-09T06:53:01.734Z,12.4
2022-11-09T06:54:01.314Z,12.4
2022-11-09T06:55:00.932Z,12.5
2022-11-09T06:56:01.508Z,12.5
2022-11-09T06:57:01.102Z,12.5
2022-11-09T06:58:01.671Z,12.5
2022-11-09T06:59:01.246Z,12.5
2022-11-09T07:00:00.821Z,12.6
2022-11-09T07:01:01.422Z,12.6
2022-11-09T07:02:01.723Z,12.5
2022-11-09T07:03:01.486Z,12.6
2022-11-09T07:04:01.077Z,12.6
2022-11-09T07:05:01.657Z,12.6
2022-11-09T07:06:01.232Z,12.6
2022-11-09T07:07:00.867Z,12.6
2022-11-09T07:08:01.398Z,12.7
2022-11-09T07:09:00.993Z,12.6
2022-11-09T07:10:01.556Z,12.6
2022-11-09T07:11:01.130Z,12.7
2022-11-09T07:12:01.708Z,12.7
2022-11-09T07:13:01.303Z,12.7
2022-11-09T07:14:00.885Z,12.7
2022-11-09T07:15:01.456Z,12.8
2022-11-09T07:16:01.032Z,12.8
2022-11-09T07:17:01.608Z,12.8
2022-11-09T07:18:01.200Z,12.8
2022-11-09T07:19:01.754Z,12.8
2022-11-09T07:20:01.363Z,12.8
2022-11-09T07:21:00.961Z,12.8
2022-11-09T07:22:01.515Z,12.8
2022-11-09T07:23:01.118Z,12.8
2022-11-09T07:24:01.673Z,12.8
2022-11-09T07:25:01.253Z,12.9
2022-11-09T07:26:00.841Z,12.9
2022-11-09T07:27:01.400Z,12.9
2022-11-09T07:28:00.974Z,12.9
2022-11-09T07:29:01.554Z,12.9
2022-11-09T07:30:01.132Z,13
2022-11-09T07:31:01.719Z,13
2022-11-09T07:32:01.291Z,13.1
2022-11-09T07:33:09.894Z,13.2
2022-11-09T07:34:01.419Z,13.1
2022-11-09T07:35:00.994Z,13.1
2022-11-09T07:36:01.578Z,13.2
2022-11-09T07:37:01.177Z,13.1
2022-11-09T07:38:02.033Z,13.1
2022-11-09T07:39:01.723Z,13.1
2022-11-09T07:40:00.971Z,13.1
2022-11-09T07:41:01.547Z,13.1
2022-11-09T07:42:01.123Z,13.2
2022-11-09T07:43:01.721Z,13.2
2022-11-09T07:44:01.302Z,13.2
2022-11-09T07:45:00.886Z,13.2
2022-11-09T07:46:01.450Z,13.2
2022-11-09T07:47:01.035Z,13.2
2022-11-09T07:48:01.629Z,13.2
2022-11-09T07:49:01.270Z,13.3
2022-11-09T07:50:00.793Z,13.3
2022-11-09T07:51:01.368Z,13.3
2022-11-09T07:52:00.949Z,13.4
2022-11-09T07:53:01.612Z,13.4
2022-11-09T07:54:01.195Z,13.4
2022-11-09T07:55:01.761Z,13.4
2022-11-09T07:56:01.338Z,13.3
2022-11-09T07:57:00.915Z,13.3
2022-11-09T07:58:01.486Z,13.3
2022-11-09T07:59:01.078Z,13.3
2022-11-09T08:00:01.639Z,13.2
2022-11-09T08:01:01.218Z,13.2
2022-11-09T08:02:00.837Z,13.3
2022-11-09T08:03:01.381Z,13.3
2022-11-09T08:04:00.973Z,13.3
2022-11-09T08:05:01.556Z,13.5
2022-11-09T08:06:01.137Z,13.5
2022-11-09T08:07:01.801Z,13.4
2022-11-09T08:08:01.437Z,13.3
2022-11-09T08:09:01.000Z,13.2
2022-11-09T08:10:01.542Z,13.2
2022-11-09T08:11:01.136Z,13.2
2022-11-09T08:12:01.711Z,13.3
2022-11-09T08:13:01.290Z,13.3
2022-11-09T08:14:00.869Z,13.4
2022-11-09T08:15:01.461Z,13.3
2022-11-09T08:16:01.055Z,13.3
2022-11-09T08:17:01.625Z,13.8
2022-11-09T08:18:01.200Z,13.6
2022-11-09T08:19:01.777Z,13.5
2022-11-09T08:20:01.356Z,13.5
2022-11-09T08:21:00.951Z,13.4
2022-11-09T08:22:01.527Z,13.4
2022-11-09T08:23:04.193Z,13.4
2022-11-09T08:24:01.652Z,13.4
2022-11-09T08:25:01.254Z,13.4
2022-11-09T08:26:00.833Z,13.5
2022-11-09T08:27:01.394Z,13.5
2022-11-09T08:28:00.968Z,13.6
2022-11-09T08:29:01.544Z,13.5
2022-11-09T08:30:01.121Z,13.5
2022-11-09T08:31:01.717Z,13.3
2022-11-09T08:32:01.293Z,13.4
2022-11-09T08:33:00.874Z,13.5
2022-11-09T08:34:01.443Z,13.5
2022-11-09T08:35:01.020Z,13.5
2022-11-09T08:36:01.613Z,13.6
2022-11-09T08:37:01.207Z,13.6
2022-11-09T08:38:01.776Z,13.7
2022-11-09T08:39:01.350Z,13.7
2022-11-09T08:40:00.925Z,13.8
2022-11-09T08:41:01.528Z,13.7
2022-11-09T08:42:01.120Z,13.6
2022-11-09T08:43:01.692Z,13.6
2022-11-09T08:44:01.271Z,13.6
2022-11-09T08:45:00.854Z,13.7
2022-11-09T08:46:01.432Z,13.7
2022-11-09T08:47:01.026Z,13.7
2022-11-09T08:48:01.610Z,13.6
2022-11-09T08:49:01.185Z,13.8
2022-11-09T08:50:00.800Z,13.9
2022-11-09T08:51:01.345Z,14
2022-11-09T08:52:00.919Z,14
2022-11-09T08:53:01.511Z,14.1
2022-11-09T08:54:01.095Z,14.3
2022-11-09T08:55:01.671Z,14
2022-11-09T08:56:01.249Z,13.8
2022-11-09T08:57:00.856Z,13.8
2022-11-09T08:58:01.429Z,13.8
2022-11-09T08:59:01.004Z,13.7
2022-11-09T09:00:01.587Z,13.8
2022-11-09T09:01:01.176Z,13.8
2022-11-09T09:02:01.785Z,13.8
2022-11-09T09:03:01.413Z,13.8
2022-11-09T09:04:00.993Z,13.9
2022-11-09T09:05:01.563Z,14
2022-11-09T09:06:01.144Z,14
2022-11-09T09:07:01.768Z,14
2022-11-09T09:08:01.396Z,13.8
2022-11-09T09:09:00.999Z,13.9
2022-11-09T09:10:01.557Z,13.9
2022-11-09T09:11:01.137Z,14
2022-11-09T09:12:01.718Z,14
2022-11-09T09:13:01.318Z,14
2022-11-09T09:14:00.915Z,14
2022-11-09T09:15:01.475Z,13.9
2022-11-09T09:16:01.053Z,14
2022-11-09T09:17:01.625Z,14
2022-11-09T09:18:01.209Z,14.2
2022-11-09T09:19:01.803Z,14.2
2022-11-09T09:20:01.381Z,14.1
2022-11-09T09:21:00.979Z,14.1
2022-11-09T09:22:01.557Z,14.3
2022-11-09T09:23:01.148Z,14.2
2022-11-09T09:24:01.751Z,14.3
2022-11-09T09:25:01.348Z,14.2
2022-11-09T09:26:00.931Z,14.2
2022-11-09T09:27:01.512Z,14.3
2022-11-09T09:28:01.099Z,14.2
2022-11-09T09:29:01.725Z,14.2
2022-11-09T09:30:01.302Z,14.3
2022-11-09T09:31:00.879Z,14.4
2022-11-09T09:32:01.477Z,14.3
2022-11-09T09:33:01.057Z,14.3
2022-11-09T09:34:01.655Z,14.4
2022-11-09T09:35:01.234Z,14.4
2022-11-09T09:36:00.821Z,14.5
2022-11-09T09:37:01.384Z,14.4
2022-11-09T09:38:00.961Z,14.3
2022-11-09T09:39:01.556Z,14.4
2022-11-09T09:40:01.172Z,14.4
2022-11-09T09:41:01.751Z,14.7
2022-11-09T09:42:01.337Z,15.3
2022-11-09T09:43:00.919Z,14.9
2022-11-09T09:44:01.514Z,14.9
2022-11-09T09:45:01.116Z,15.2
2022-11-09T09:46:01.676Z,14.7
2022-11-09T09:47:01.253Z,14.5
2022-11-09T09:48:00.844Z,14.5
2022-11-09T09:49:01.434Z,14.5
2022-11-09T09:50:01.053Z,14.6
2022-11-09T09:51:01.632Z,14.6
2022-11-09T09:52:01.244Z,14.7
2022-11-09T09:53:22.491Z,14.8
2022-11-09T09:54:01.375Z,14.8
2022-11-09T09:55:00.949Z,14.8
2022-11-09T09:56:01.524Z,15
2022-11-09T09:57:01.106Z,15.1
2022-11-09T09:58:01.700Z,15.2
2022-11-09T09:59:01.280Z,15.3
2022-11-09T10:00:00.856Z,15.3
2022-11-09T10:01:01.529Z,15.2
2022-11-09T10:02:01.087Z,15.2
2022-11-09T10:03:01.688Z,15.3
2022-11-09T10:04:01.289Z,15.2
2022-11-09T10:05:00.855Z,15.1
2022-11-09T10:06:01.432Z,15
2022-11-09T10:07:01.066Z,15.1
2022-11-09T10:08:01.605Z,15
2022-11-09T10:09:01.179Z,14.9
2022-11-09T10:10:01.754Z,14.8
2022-11-09T10:11:01.342Z,14.8
2022-11-09T10:12:01.517Z,14.8
2022-11-09T10:13:01.181Z,14.9
2022-11-09T10:14:01.758Z,15
2022-11-09T10:15:01.333Z,15.2
2022-11-09T10:16:00.906Z,15.3
2022-11-09T10:17:01.528Z,15.3
2022-11-09T10:18:01.105Z,15.3
2022-11-09T10:19:01.705Z,15.1
2022-11-09T10:20:01.283Z,15.2
2022-11-09T10:21:00.856Z,15.1
2022-11-09T10:22:01.435Z,15.1
2022-11-09T10:23:01.087Z,15
2022-11-09T10:24:01.673Z,15
2022-11-09T10:26:05.469Z,15.2
2022-11-09T10:27:01.337Z,15.2
2022-11-09T10:28:00.912Z,15.2
2022-11-09T10:29:15.435Z,15.3
2022-11-09T10:30:01.035Z,15.3
2022-11-09T10:31:01.609Z,15.3
2022-11-09T10:32:01.181Z,15.3
2022-11-09T10:33:01.785Z,15.2
2022-11-09T10:34:01.364Z,15.3
2022-11-09T10:35:00.950Z,15.2
2022-11-09T10:36:05.381Z,15.2
2022-11-09T10:37:01.057Z,15.1
2022-11-09T10:38:01.633Z,15.2
2022-11-09T10:39:01.212Z,15.3
2022-11-09T10:40:00.808Z,15.1
2022-11-09T10:41:01.385Z,15
2022-11-09T10:42:00.960Z,15.1
2022-11-09T10:43:01.534Z,15
2022-11-09T10:44:01.110Z,15.2
2022-11-09T10:45:01.691Z,15.2
2022-11-09T10:46:01.285Z,15.3
2022-11-09T10:47:00.854Z,15.2
2022-11-09T10:48:01.428Z,15.1
2022-11-09T10:49:01.031Z,15.1
2022-11-09T10:50:01.594Z,15.1
2022-11-09T10:51:01.219Z,15.1
2022-11-09T10:52:01.750Z,15.2
2022-11-09T10:53:01.325Z,15.2
2022-11-09T10:54:00.898Z,15.1
2022-11-09T10:55:01.472Z,15.1
2022-11-09T10:56:01.060Z,15.3
2022-11-09T10:57:05.845Z,15.3
2022-11-09T10:58:01.172Z,15.3
2022-11-09T10:59:01.746Z,15.4
2022-11-09T11:00:01.320Z,15.4
2022-11-09T11:01:00.913Z,15.5
2022-11-09T11:02:02.443Z,15.6
2022-11-09T11:03:01.142Z,15.6
2022-11-09T11:04:01.722Z,15.8
2022-11-09T11:05:01.331Z,15.8
2022-11-09T11:06:00.925Z,15.5
2022-11-09T11:07:01.546Z,15.4
2022-11-09T11:08:01.167Z,15.4
2022-11-09T11:09:01.739Z,15.3
2022-11-09T11:10:01.318Z,15.1
2022-11-09T11:11:12.975Z,15.1
2022-11-09T11:12:01.446Z,15
2022-11-09T11:13:01.024Z,15.1
2022-11-09T11:14:01.637Z,15
2022-11-09T11:15:01.213Z,15
2022-11-09T11:16:00.795Z,15
2022-11-09T11:17:01.372Z,14.9
2022-11-09T11:18:00.948Z,15
2022-11-09T11:19:01.541Z,14.9
2022-11-09T11:20:01.124Z,14.9
2022-11-09T11:21:01.727Z,15
2022-11-09T11:22:01.318Z,15
2022-11-09T11:23:00.893Z,15
2022-11-09T11:24:01.466Z,15
2022-11-09T11:25:01.059Z,15
2022-11-09T11:26:01.626Z,15.2
2022-11-09T11:27:02.069Z,15.1
2022-11-09T11:28:01.761Z,15.2
2022-11-09T11:29:01.347Z,15.2
2022-11-09T11:30:00.940Z,15.1
2022-11-09T11:31:01.520Z,15.1
2022-11-09T11:32:01.126Z,14.9
2022-11-09T11:33:01.823Z,14.9
2022-11-09T11:34:01.349Z,14.8
2022-11-09T11:35:01.737Z,14.9
2022-11-09T11:36:01.588Z,14.9
2022-11-09T11:37:01.199Z,14.9
2022-11-09T11:38:01.744Z,14.9
2022-11-09T11:39:01.324Z,15
2022-11-09T11:40:00.903Z,14.9
2022-11-09T11:41:01.475Z,14.9
2022-11-09T11:42:01.070Z,14.9
2022-11-09T11:43:01.656Z,14.9
2022-11-09T11:44:01.244Z,14.9
2022-11-09T11:45:18.795Z,15
2022-11-09T11:46:01.342Z,14.9
2022-11-09T11:47:00.916Z,15
2022-11-09T11:48:01.508Z,15
2022-11-09T11:49:01.102Z,15
2022-11-09T11:50:01.659Z,14.9
2022-11-09T11:51:01.237Z,14.9
2022-11-09T11:52:00.862Z,14.8
2022-11-09T11:53:01.489Z,14.9
2022-11-09T11:54:01.070Z,14.8
2022-11-09T11:55:01.636Z,14.9
2022-11-09T11:56:01.213Z,14.8
2022-11-09T11:57:01.784Z,14.8
2022-11-09T11:58:01.363Z,14.8
2022-11-09T11:59:00.957Z,14.8
2022-11-09T12:00:01.540Z,14.9
2022-11-09T12:01:01.128Z,14.9
2022-11-09T12:02:01.705Z,14.9
2022-11-09T12:03:01.339Z,14.9
2022-11-09T12:04:00.936Z,14.9
2022-11-09T12:05:01.526Z,14.9
2022-11-09T12:06:01.109Z,14.9
2022-11-09T12:07:01.741Z,14.8
2022-11-09T12:08:01.327Z,14.8
2022-11-09T12:09:00.932Z,14.8
2022-11-09T12:10:01.491Z,14.8
2022-11-09T12:11:01.080Z,14.9
2022-11-09T12:12:01.653Z,15
2022-11-09T12:13:01.230Z,15.1
2022-11-09T12:14:00.817Z,15.2
2022-11-09T12:15:01.391Z,15.2
2022-11-09T12:16:00.981Z,15
2022-11-09T12:17:01.547Z,15.2
2022-11-09T12:18:01.125Z,15.2
2022-11-09T12:19:01.702Z,15.2
2022-11-09T12:20:01.301Z,15.1
2022-11-09T12:21:00.895Z,15.2
2022-11-09T12:22:01.464Z,15.1
2022-11-09T12:23:01.051Z,15.1
2022-11-09T12:24:01.617Z,15.1
2022-11-09T12:25:01.251Z,15.1
2022-11-09T12:26:01.800Z,15.2
2022-11-09T12:27:18.208Z,15.1
2022-11-09T12:28:00.925Z,15.1
2022-11-09T12:29:01.503Z,15.2
2022-11-09T12:30:01.081Z,15.2
2022-11-09T12:31:01.650Z,15.2
2022-11-09T12:32:01.241Z,15.3
2022-11-09T12:33:00.800Z,15.3
2022-11-09T12:34:01.373Z,15.2
2022-11-09T12:35:00.951Z,15.4
2022-11-09T12:36:01.600Z,15.4
2022-11-09T12:37:01.218Z,15.5
2022-11-09T12:38:01.776Z,15.6
2022-11-09T12:39:01.354Z,15.7
2022-11-09T12:40:00.932Z,15.7
2022-11-09T12:41:01.546Z,15.6
2022-11-09T12:42:01.137Z,15.7
2022-11-09T12:43:01.711Z,15.7
2022-11-09T12:44:01.301Z,15.7
2022-11-09T12:45:00.877Z,15.8
2022-11-09T12:46:01.452Z,15.7
2022-11-09T12:47:01.038Z,15.6
2022-11-09T12:48:01.627Z,15.6
2022-11-09T12:49:01.208Z,15.7
2022-11-09T12:50:01.792Z,15.5
2022-11-09T12:51:01.374Z,15.5
2022-11-09T12:52:00.950Z,15.3
2022-11-09T12:53:01.562Z,15.3
2022-11-09T12:54:01.157Z,15.4
2022-11-09T12:55:01.743Z,15.4
2022-11-09T12:56:01.318Z,15.3
2022-11-09T12:57:00.921Z,15.4
2022-11-09T12:58:01.480Z,15.3
2022-11-09T12:59:01.056Z,15.3
2022-11-09T13:00:01.657Z,15.3
2022-11-09T13:01:01.235Z,15.3
2022-11-09T13:02:00.854Z,15.3
2022-11-09T13:03:01.396Z,15.3
2022-11-09T13:04:00.971Z,15.3
2022-11-09T13:05:01.567Z,15.2
2022-11-09T13:06:02.506Z,15.2
2022-11-09T13:07:01.294Z,15.3
2022-11-09T13:08:00.886Z,15.3
2022-11-09T13:09:01.460Z,15.1
2022-11-09T13:10:01.612Z,15
2022-11-09T13:11:01.194Z,14.9
2022-11-09T13:12:01.774Z,15
2022-11-09T13:13:01.379Z,14.8
2022-11-09T13:14:00.952Z,14.9
2022-11-09T13:15:01.562Z,14.8
2022-11-09T13:16:01.160Z,14.8
2022-11-09T13:17:01.719Z,14.9
2022-11-09T13:18:01.298Z,14.8
2022-11-09T13:19:00.875Z,15
2022-11-09T13:20:01.467Z,15
2022-11-09T13:21:01.043Z,15.1
2022-11-09T13:22:01.634Z,15
2022-11-09T13:23:01.210Z,15
2022-11-09T13:24:03.798Z,15.1
2022-11-09T13:25:01.322Z,15
2022-11-09T13:26:00.897Z,15